To NAV CANADA Home Page Login to a new session Search on AWWS site Disclaimer Vers la page française équivalente Tips FAQ What's new on the site To the Forecasts and Observations / NOTAM section To "File a Flight Plan" website Publications and other links Update of the User's profile FIC Telephone Numbers My Weather Data Folder Route Weather Data Regional Weather Data Local Weather Data To the Forecasts and Observations / NOTAM section
Request Generated 02/25/2018 at 11:50:19 UTC . Weather information available at that time is displayed.

METAR/TAF

TORONTO/BILLY BISHOP TORONTO CITY AIRPORT/ON    (show WxCam)

SPECI CYTZ 251145Z AUTO 07020G27KT 2 1/2SM -RA BR OVC005 02/01 A2961
RMK SLP030=
SPECI CYTZ 251139Z AUTO 07022G28KT 5SM -RA BR OVC005 02/01 A2962 RMK
SLP033=
SPECI CYTZ 251120Z AUTO 07022G28KT 6SM -RA BR OVC005 02/01 A2962 RMK
PRESFR SLP035=
SPECI CYTZ 251116Z AUTO 07022G28KT 5SM -RA BR OVC005 02/01 A2963 RMK
PRESFR SLP037=
SPECI CYTZ 251105Z AUTO 07023G29KT 9SM -RA OVC007 02/01 A2964 RMK
SLP040=
SPECI CYTZ 251103Z AUTO 07019G31KT 9SM OVC007 02/01 A2964 RMK SLP040=
METAR CYTZ 251100Z AUTO 07023G31KT 9SM -RA OVC007 02/01 A2964 RMK
SLP041=
SPECI CYTZ 251042Z AUTO 07025G31KT 9SM -RA OVC007 02/01 A2965 RMK
PRESFR SLP044=
SPECI CYTZ 251036Z AUTO 06026G31KT 9SM OVC007 02/01 A2966 RMK PRESFR
SLP049=
SPECI CYTZ 251018Z AUTO 08016G27KT 9SM -RA OVC007 02/01 A2970 RMK
SLP062=
METAR CYTZ 251000Z AUTO 07022G29KT 9SM OVC007 02/01 A2971 RMK SLP066=
SPECI CYTZ 250915Z AUTO 07022G31KT 9SM OVC007 02/01 A2973 RMK PRESRR
SLP073=
METAR CYTZ 250900Z AUTO 08028G39KT 8SM -RA OVC007 02/01 A2971 RMK
PRESFR SLP065=

TAF AMD CYTZ 250817Z 2508/2608 07025G35KT 3SM -RA BR OVC008 TEMPO
2508/2510 P6SM NSW SCT008 OVC020
FM251000 07022G32KT 2SM -RA BR OVC004 TEMPO 2510/2512 6SM BR
OVC012
FM251200 08018KT 1SM -RA BR OVC003 TEMPO 2512/2515 3SM BR OVC006
FM251500 24015KT P6SM SCT005 BKN015 OVC080
FM251600 24020G35KT P6SM SCT020
BECMG 2522/2524 25015G25KT
FM260200 25015KT P6SM SCT030
RMK FCST BASED ON AUTO OBS. NXT FCST BY 251400Z=
Your time UTC time
Weather data provided by Environment Canada and NAV CANADA